createdAt,value
2017-09-15T00:01:24.019Z,11.20
2017-09-15T00:03:52.307Z,11.20
2017-09-15T00:06:20.823Z,11.20
2017-09-15T00:08:49.135Z,11.30
2017-09-15T00:11:17.452Z,11.30
2017-09-15T00:13:45.744Z,11.30
2017-09-15T00:16:14.035Z,11.30
2017-09-15T00:18:42.439Z,11.40
2017-09-15T00:21:10.750Z,11.30
2017-09-15T00:23:39.123Z,11.30
2017-09-15T00:26:07.443Z,11.20
2017-09-15T00:28:35.724Z,11.20
2017-09-15T00:31:04.043Z,11.10
2017-09-15T00:33:32.328Z,11.20
2017-09-15T00:36:00.614Z,11.10
2017-09-15T00:38:28.935Z,11.10
2017-09-15T00:40:57.219Z,11.10
2017-09-15T00:43:25.601Z,11.10
2017-09-15T00:45:53.974Z,11.10
2017-09-15T00:48:22.353Z,11.10
2017-09-15T00:50:50.764Z,11.10
2017-09-15T00:53:19.063Z,11.10
2017-09-15T00:55:47.571Z,11.20
2017-09-15T00:58:15.850Z,11.20
2017-09-15T01:00:44.136Z,11.20
2017-09-15T01:03:12.450Z,11.30
2017-09-15T01:05:40.726Z,11.30
2017-09-15T01:08:09.770Z,11.20
2017-09-15T01:10:38.076Z,11.20
2017-09-15T01:13:06.392Z,11.20
2017-09-15T01:15:34.703Z,11.10
2017-09-15T01:18:03.007Z,11.20
2017-09-15T01:20:31.412Z,11.20
2017-09-15T01:22:59.707Z,11.10
2017-09-15T01:25:28.014Z,11.20
2017-09-15T01:27:56.304Z,11.20
2017-09-15T01:30:24.639Z,11.20
2017-09-15T01:32:53.076Z,11.20
2017-09-15T01:35:21.427Z,11.20
2017-09-15T01:37:49.748Z,11.30
2017-09-15T01:40:18.043Z,11.30
2017-09-15T01:42:46.354Z,11.30
2017-09-15T01:45:14.732Z,11.40
2017-09-15T01:47:43.046Z,11.40
2017-09-15T01:50:11.332Z,11.40
2017-09-15T01:52:39.639Z,11.40
2017-09-15T01:55:07.950Z,11.30
2017-09-15T01:57:36.231Z,11.40
2017-09-15T02:00:04.552Z,11.40
2017-09-15T02:02:32.837Z,11.40
2017-09-15T02:05:01.248Z,11.40
2017-09-15T02:07:29.563Z,11.40
2017-09-15T02:09:57.847Z,11.40
2017-09-15T02:12:26.135Z,11.50
2017-09-15T02:14:54.497Z,11.40
2017-09-15T02:17:23.655Z,11.50
2017-09-15T02:19:51.947Z,11.50
2017-09-15T02:22:20.316Z,11.50
2017-09-15T02:24:48.626Z,11.50
2017-09-15T02:27:17.711Z,11.60
2017-09-15T02:29:45.994Z,11.50
2017-09-15T02:32:14.313Z,11.60
2017-09-15T02:34:42.736Z,11.60
2017-09-15T02:37:11.807Z,11.60
2017-09-15T02:39:40.123Z,11.60
2017-09-15T02:42:08.419Z,11.50
2017-09-15T02:44:36.698Z,11.50
2017-09-15T02:47:05.044Z,11.60
2017-09-15T02:49:33.327Z,11.60
2017-09-15T02:52:01.643Z,11.60
2017-09-15T02:54:29.971Z,11.50
2017-09-15T02:56:58.352Z,11.60
2017-09-15T02:59:26.670Z,11.60
2017-09-15T03:01:54.996Z,11.60
2017-09-15T03:04:23.339Z,11.60
2017-09-15T03:06:51.634Z,11.60
2017-09-15T03:09:20.097Z,11.60
2017-09-15T03:11:49.178Z,11.50
2017-09-15T03:14:17.494Z,11.50
2017-09-15T03:16:45.774Z,11.50
2017-09-15T03:19:14.187Z,11.40
2017-09-15T03:21:42.470Z,11.40
2017-09-15T03:24:10.782Z,11.50
2017-09-15T03:26:39.089Z,11.30
2017-09-15T03:29:07.376Z,11.30
2017-09-15T03:31:35.794Z,11.50
2017-09-15T03:34:04.110Z,11.50
2017-09-15T03:36:32.398Z,11.50
2017-09-15T03:39:00.735Z,11.50
2017-09-15T03:41:29.018Z,11.60
2017-09-15T03:43:57.403Z,11.70
2017-09-15T03:46:25.715Z,11.60
2017-09-15T03:48:54.019Z,11.60
2017-09-15T03:51:22.359Z,11.70
2017-09-15T03:53:51.486Z,11.70
2017-09-15T03:56:19.806Z,11.70
2017-09-15T03:58:48.158Z,11.60
2017-09-15T04:01:16.439Z,11.60
2017-09-15T04:03:44.722Z,11.70
2017-09-15T04:06:13.034Z,11.70
2017-09-15T04:08:41.346Z,11.80
2017-09-15T04:11:09.630Z,11.80
2017-09-15T04:13:37.955Z,11.90
2017-09-15T04:16:06.338Z,11.90
2017-09-15T04:18:34.651Z,11.90
2017-09-15T04:21:02.931Z,11.90
2017-09-15T04:23:31.260Z,11.90
2017-09-15T04:25:59.546Z,11.90
2017-09-15T04:28:27.855Z,11.90
2017-09-15T04:30:56.162Z,11.90
2017-09-15T04:33:24.450Z,11.90
2017-09-15T04:35:52.779Z,11.90
2017-09-15T04:38:21.126Z,11.90
2017-09-15T04:40:50.190Z,12.10
2017-09-15T04:43:18.527Z,12.10
2017-09-15T04:45:47.606Z,12.10
2017-09-15T04:48:15.919Z,12.10
2017-09-15T04:50:44.211Z,12.20
2017-09-15T04:53:12.527Z,12.10
2017-09-15T04:55:40.834Z,12.20
2017-09-15T04:58:09.907Z,12.20
2017-09-15T05:00:38.247Z,12.10
2017-09-15T05:03:06.528Z,12.20
2017-09-15T05:05:34.843Z,12.20
2017-09-15T05:08:03.123Z,12.30
2017-09-15T05:10:31.447Z,12.40
2017-09-15T05:12:59.756Z,12.50
2017-09-15T05:15:28.042Z,12.60
2017-09-15T05:17:56.354Z,12.60
2017-09-15T05:20:24.630Z,12.70
2017-09-15T05:22:52.955Z,12.60
2017-09-15T05:25:21.282Z,12.70
2017-09-15T05:27:49.597Z,12.80
2017-09-15T05:30:18.642Z,13.00
2017-09-15T05:32:46.963Z,13.00
2017-09-15T05:35:15.279Z,13.00
2017-09-15T05:37:43.578Z,13.00
2017-09-15T05:40:11.894Z,12.90
2017-09-15T05:42:40.183Z,12.90
2017-09-15T05:45:08.466Z,12.90
2017-09-15T05:47:36.780Z,13.00
2017-09-15T05:50:05.103Z,13.00
2017-09-15T05:52:33.380Z,13.00
2017-09-15T05:55:01.687Z,13.00
2017-09-15T05:57:29.963Z,13.00
2017-09-15T05:59:58.303Z,13.00
2017-09-15T06:02:26.809Z,13.00
2017-09-15T06:04:55.096Z,13.10
2017-09-15T06:07:23.504Z,13.10
2017-09-15T06:09:51.879Z,13.20
2017-09-15T06:12:20.199Z,13.20
2017-09-15T06:14:48.608Z,13.30
2017-09-15T06:17:16.911Z,13.40
2017-09-15T06:19:45.217Z,13.50
2017-09-15T06:22:13.632Z,13.50
2017-09-15T06:24:41.938Z,13.50
2017-09-15T06:27:10.226Z,13.50
2017-09-15T06:29:38.655Z,13.50
2017-09-15T06:32:07.048Z,13.60
2017-09-15T06:34:35.352Z,13.80
2017-09-15T06:37:03.759Z,13.80
2017-09-15T06:39:32.155Z,13.90
2017-09-15T06:42:00.430Z,13.80
2017-09-15T06:44:28.730Z,13.60
2017-09-15T06:46:57.068Z,13.80
2017-09-15T06:49:25.342Z,13.90
2017-09-15T06:51:53.648Z,14.10
2017-09-15T06:54:21.922Z,14.30
2017-09-15T06:56:50.414Z,14.40
2017-09-15T06:59:19.543Z,14.70
2017-09-15T07:01:48.610Z,14.60
2017-09-15T07:04:16.914Z,14.60
2017-09-15T07:06:45.227Z,14.60
2017-09-15T07:09:13.507Z,14.60
2017-09-15T07:11:41.791Z,14.60
2017-09-15T07:14:10.107Z,14.50
2017-09-15T07:16:38.383Z,14.50
2017-09-15T07:19:06.731Z,14.60
2017-09-15T07:21:35.047Z,14.70
2017-09-15T07:24:03.327Z,14.70
2017-09-15T07:26:31.635Z,14.80
2017-09-15T07:28:59.950Z,14.90
2017-09-15T07:31:28.339Z,14.80
2017-09-15T07:33:56.621Z,15.00
2017-09-15T07:36:24.926Z,15.10
2017-09-15T07:38:53.202Z,15.20
2017-09-15T07:41:21.485Z,15.30
2017-09-15T07:43:50.567Z,15.60
2017-09-15T07:46:18.846Z,15.60
2017-09-15T07:48:47.155Z,15.70
2017-09-15T07:51:15.466Z,15.70
2017-09-15T07:53:43.774Z,15.60
2017-09-15T07:56:12.088Z,15.80
2017-09-15T07:58:40.365Z,15.90
2017-09-15T08:01:08.679Z,15.80
2017-09-15T08:03:36.960Z,15.90
2017-09-15T08:06:05.278Z,16.10
2017-09-15T08:08:33.587Z,16.20
2017-09-15T08:11:01.863Z,16.20
2017-09-15T08:13:30.182Z,16.30
2017-09-15T08:15:58.487Z,16.40
2017-09-15T08:18:26.766Z,16.40
2017-09-15T08:20:55.086Z,16.20
2017-09-15T08:23:23.391Z,16.00
2017-09-15T08:25:51.702Z,15.90
2017-09-15T08:28:20.399Z,15.80
2017-09-15T08:30:48.706Z,15.70
2017-09-15T08:33:17.107Z,15.70
2017-09-15T08:35:45.386Z,16.00
2017-09-15T08:38:13.703Z,16.30
2017-09-15T08:40:41.982Z,16.20
2017-09-15T08:43:10.268Z,16.30
2017-09-15T08:45:39.347Z,16.50
2017-09-15T08:48:07.631Z,16.50
2017-09-15T08:50:35.934Z,16.90
2017-09-15T08:53:04.242Z,17.10
2017-09-15T08:55:32.551Z,17.30
2017-09-15T08:58:00.943Z,17.10
2017-09-15T09:00:29.251Z,17.10
2017-09-15T09:02:57.547Z,17.20
2017-09-15T09:05:25.823Z,17.20
2017-09-15T09:07:54.139Z,17.60
2017-09-15T09:10:22.427Z,17.60
2017-09-15T09:12:50.754Z,17.90
2017-09-15T09:15:19.030Z,17.90
2017-09-15T09:17:47.655Z,17.90
2017-09-15T09:20:15.933Z,17.60
2017-09-15T09:22:44.246Z,17.40
2017-09-15T09:25:12.567Z,17.10
2017-09-15T09:27:40.867Z,17.10
2017-09-15T09:30:09.151Z,17.40
2017-09-15T09:32:37.458Z,17.30
2017-09-15T09:35:05.764Z,17.30
2017-09-15T09:37:34.082Z,17.40
2017-09-15T09:40:02.387Z,17.30
2017-09-15T09:42:30.659Z,17.60
2017-09-15T09:44:58.977Z,17.40
2017-09-15T09:47:27.284Z,17.20
2017-09-15T09:49:55.554Z,17.10
2017-09-15T09:52:23.859Z,17.30
2017-09-15T09:54:52.171Z,17.30
2017-09-15T09:57:21.002Z,17.50
2017-09-15T09:59:49.310Z,17.70
2017-09-15T10:02:17.619Z,17.40
2017-09-15T10:04:46.008Z,17.20
2017-09-15T10:07:14.282Z,17.20
2017-09-15T10:09:42.579Z,17.20
2017-09-15T10:12:10.895Z,17.00
2017-09-15T10:14:39.174Z,16.80
2017-09-15T10:17:07.455Z,17.00
2017-09-15T10:19:36.531Z,17.30
2017-09-15T10:22:04.942Z,17.30
2017-09-15T10:24:33.215Z,17.40
2017-09-15T10:27:01.490Z,17.60
2017-09-15T10:29:30.666Z,18.10
2017-09-15T10:31:58.942Z,18.00
2017-09-15T10:34:27.247Z,18.00
2017-09-15T10:36:55.567Z,17.90
2017-09-15T10:39:23.883Z,17.70
2017-09-15T10:41:52.163Z,17.60
2017-09-15T10:44:20.480Z,17.30
2017-09-15T10:46:48.792Z,17.20
2017-09-15T10:49:17.836Z,17.00
2017-09-15T10:51:46.910Z,16.90
2017-09-15T10:54:15.186Z,16.80
2017-09-15T10:56:43.498Z,17.20
2017-09-15T10:59:17.435Z,17.50
2017-09-15T11:01:45.855Z,17.70
2017-09-15T11:04:14.131Z,17.70
2017-09-15T11:06:42.559Z,17.90
2017-09-15T11:09:10.834Z,18.10
2017-09-15T11:11:39.110Z,18.40
2017-09-15T11:14:08.182Z,18.60
2017-09-15T11:16:36.490Z,18.60
2017-09-15T11:19:04.767Z,18.90
2017-09-15T11:21:33.086Z,18.70
2017-09-15T11:24:01.496Z,18.80
2017-09-15T11:26:29.799Z,19.00
2017-09-15T11:28:58.074Z,19.10
2017-09-15T11:31:26.351Z,18.90
2017-09-15T11:33:55.519Z,18.70
2017-09-15T11:36:23.798Z,18.60
2017-09-15T11:38:52.083Z,18.60
2017-09-15T11:41:20.395Z,18.40
2017-09-15T11:43:48.671Z,18.10
2017-09-15T11:46:17.023Z,18.00
2017-09-15T11:48:45.331Z,18.10
2017-09-15T11:51:13.626Z,18.00
2017-09-15T11:53:42.107Z,18.10
2017-09-15T11:56:10.387Z,18.00
2017-09-15T11:58:39.431Z,17.90
2017-09-15T12:01:07.751Z,17.90
2017-09-15T12:03:36.027Z,17.90
2017-09-15T12:06:04.335Z,17.90
2017-09-15T12:08:32.638Z,17.80
2017-09-15T12:11:00.959Z,17.90
2017-09-15T12:13:29.266Z,17.90
2017-09-15T12:15:57.651Z,17.80
2017-09-15T12:18:25.958Z,17.70
2017-09-15T12:20:54.379Z,17.60
2017-09-15T12:23:22.668Z,17.50
2017-09-15T12:25:51.095Z,17.60
2017-09-15T12:28:19.371Z,17.60
2017-09-15T12:30:47.679Z,17.60
2017-09-15T12:33:15.982Z,17.60
2017-09-15T12:35:44.287Z,17.50
2017-09-15T12:38:12.619Z,17.70
2017-09-15T12:40:40.890Z,17.70
2017-09-15T12:43:09.191Z,17.80
2017-09-15T12:45:37.600Z,17.70
2017-09-15T12:48:05.907Z,17.80
2017-09-15T12:50:34.214Z,17.90
2017-09-15T12:53:04.007Z,17.90
2017-09-15T12:55:32.310Z,17.90
2017-09-15T12:58:00.621Z,17.90
2017-09-15T13:00:28.943Z,17.90
2017-09-15T13:02:57.255Z,18.10
2017-09-15T13:05:25.548Z,18.20
2017-09-15T13:07:53.859Z,18.20
2017-09-15T13:10:22.656Z,18.30
2017-09-15T13:12:50.932Z,18.10
2017-09-15T13:15:19.249Z,18.00
2017-09-15T13:17:47.526Z,18.20
2017-09-15T13:20:15.838Z,18.40
2017-09-15T13:22:44.171Z,18.40
2017-09-15T13:25:12.491Z,18.40
2017-09-15T13:27:41.703Z,18.30
2017-09-15T13:30:10.006Z,18.40
2017-09-15T13:32:38.282Z,18.20
2017-09-15T13:35:06.592Z,18.10
2017-09-15T13:37:34.899Z,18.10
2017-09-15T13:40:03.178Z,18.30
2017-09-15T13:42:31.491Z,18.30
2017-09-15T13:44:59.815Z,18.60
2017-09-15T13:47:28.096Z,18.50
2017-09-15T13:49:56.371Z,18.50
2017-09-15T13:52:24.690Z,18.60
2017-09-15T13:54:53.014Z,18.50
2017-09-15T13:57:21.327Z,18.30
2017-09-15T13:59:51.123Z,18.10
2017-09-15T14:02:19.448Z,18.10
2017-09-15T14:04:47.851Z,18.10
2017-09-15T14:07:16.167Z,18.10
2017-09-15T14:09:44.558Z,18.10
2017-09-15T14:12:12.836Z,18.20
2017-09-15T14:14:41.148Z,18.20
2017-09-15T14:17:09.467Z,18.20
2017-09-15T14:19:37.777Z,18.20
2017-09-15T14:22:06.071Z,18.20
2017-09-15T14:24:34.384Z,18.10
2017-09-15T14:27:02.687Z,17.80
2017-09-15T14:29:30.967Z,17.80
2017-09-15T14:31:59.379Z,17.70
2017-09-15T14:34:27.678Z,17.60
2017-09-15T14:36:55.991Z,17.60
2017-09-15T14:39:24.315Z,17.60
2017-09-15T14:41:52.690Z,17.60
2017-09-15T14:44:21.115Z,17.40
2017-09-15T14:46:49.400Z,17.40
2017-09-15T14:49:17.678Z,17.30
2017-09-15T14:51:46.039Z,17.30
2017-09-15T14:54:15.114Z,17.20
2017-09-15T14:56:43.513Z,17.20
2017-09-15T14:59:11.818Z,17.20
2017-09-15T15:01:40.094Z,17.10
2017-09-15T15:04:08.426Z,17.10
2017-09-15T15:06:36.747Z,16.90
2017-09-15T15:09:05.031Z,16.80
2017-09-15T15:11:33.337Z,16.50
2017-09-15T15:14:01.662Z,16.50
2017-09-15T15:16:29.935Z,16.50
2017-09-15T15:18:58.234Z,16.50
2017-09-15T15:21:26.639Z,16.50
2017-09-15T15:23:54.919Z,16.50
2017-09-15T15:26:23.254Z,16.40
2017-09-15T15:28:51.563Z,16.30
2017-09-15T15:31:21.517Z,16.30
2017-09-15T15:33:49.799Z,16.30
2017-09-15T15:36:18.107Z,16.40
2017-09-15T15:38:47.923Z,16.30
2017-09-15T15:41:16.234Z,16.30
2017-09-15T15:43:44.542Z,16.10
2017-09-15T15:46:14.330Z,16.20
2017-09-15T15:48:42.638Z,16.10
2017-09-15T15:51:10.946Z,16.10
2017-09-15T15:53:39.226Z,16.20
2017-09-15T15:56:08.311Z,16.00
2017-09-15T15:58:36.590Z,16.00
2017-09-15T16:01:04.871Z,16.00
2017-09-15T16:03:33.184Z,15.90
2017-09-15T16:06:01.463Z,15.90
2017-09-15T16:08:29.771Z,16.00
2017-09-15T16:10:58.048Z,15.80
2017-09-15T16:13:27.095Z,15.80
2017-09-15T16:15:55.411Z,15.80
2017-09-15T16:18:23.743Z,15.70
2017-09-15T16:20:53.530Z,15.60
2017-09-15T16:23:21.843Z,15.60
2017-09-15T16:25:50.169Z,15.60
2017-09-15T16:28:20.006Z,15.60
2017-09-15T16:30:48.283Z,15.60
2017-09-15T16:33:16.592Z,15.50
2017-09-15T16:35:44.903Z,15.40
2017-09-15T16:38:18.915Z,15.30
2017-09-15T16:40:52.808Z,15.20
2017-09-15T16:43:26.874Z,15.20
2017-09-15T16:46:01.008Z,15.10
2017-09-15T16:48:35.686Z,14.80
2017-09-15T16:51:04.006Z,14.80
2017-09-15T16:53:32.411Z,14.80
2017-09-15T16:56:00.690Z,14.70
2017-09-15T16:58:29.000Z,14.70
2017-09-15T17:00:57.279Z,14.70
2017-09-15T17:03:25.635Z,14.60
2017-09-15T17:05:53.947Z,14.50
2017-09-15T17:08:23.747Z,14.30
2017-09-15T17:10:52.062Z,14.30
2017-09-15T17:13:20.394Z,14.20
2017-09-15T17:15:48.720Z,14.20
2017-09-15T17:18:17.058Z,14.10
2017-09-15T17:20:45.369Z,14.20
2017-09-15T17:23:13.690Z,14.10
2017-09-15T17:25:41.998Z,14.00
2017-09-15T17:28:11.802Z,13.80
2017-09-15T17:30:40.111Z,13.80
2017-09-15T17:33:08.431Z,13.80
2017-09-15T17:35:36.721Z,13.70
2017-09-15T17:38:05.042Z,13.60
2017-09-15T17:40:34.827Z,13.60
2017-09-15T17:43:03.110Z,13.60
2017-09-15T17:45:32.182Z,13.40
2017-09-15T17:48:00.925Z,13.40
2017-09-15T17:50:30.011Z,13.30
2017-09-15T17:52:58.507Z,13.30
2017-09-15T17:55:26.783Z,13.30
2017-09-15T17:57:55.086Z,13.30
2017-09-15T18:00:23.395Z,13.20
2017-09-15T18:02:51.715Z,13.20
2017-09-15T18:05:20.035Z,13.30
2017-09-15T18:07:48.418Z,13.30
2017-09-15T18:10:16.702Z,13.20
2017-09-15T18:12:45.035Z,13.20
2017-09-15T18:15:13.307Z,13.20
2017-09-15T18:17:41.620Z,13.00
2017-09-15T18:20:09.926Z,13.00
2017-09-15T18:22:38.359Z,13.00
2017-09-15T18:25:06.624Z,13.00
2017-09-15T18:27:35.039Z,13.10
2017-09-15T18:30:03.442Z,13.10
2017-09-15T18:32:31.758Z,13.00
2017-09-15T18:35:00.044Z,13.00
2017-09-15T18:37:28.978Z,12.90
2017-09-15T18:39:57.247Z,12.90
2017-09-15T18:42:25.560Z,12.80
2017-09-15T18:44:53.938Z,12.80
2017-09-15T18:47:22.348Z,12.70
2017-09-15T18:49:50.982Z,12.60
2017-09-15T18:52:19.308Z,12.60
2017-09-15T18:54:47.643Z,12.50
2017-09-15T18:57:15.923Z,12.50
2017-09-15T18:59:45.016Z,12.30
2017-09-15T19:02:13.318Z,12.40
2017-09-15T19:04:41.710Z,12.40
2017-09-15T19:07:10.022Z,12.30
2017-09-15T19:09:38.302Z,12.30
2017-09-15T19:12:06.631Z,12.30
2017-09-15T19:14:34.910Z,12.40
2017-09-15T19:17:03.191Z,12.30
2017-09-15T19:19:31.546Z,12.30
2017-09-15T19:22:00.206Z,12.40
2017-09-15T19:24:28.539Z,12.30
2017-09-15T19:26:57.018Z,12.40
2017-09-15T19:29:25.335Z,12.40
2017-09-15T19:31:53.615Z,12.40
2017-09-15T19:34:21.947Z,12.30
2017-09-15T19:36:50.291Z,12.30
2017-09-15T19:39:19.367Z,12.40
2017-09-15T19:41:47.739Z,12.30
2017-09-15T19:44:16.076Z,12.30
2017-09-15T19:46:44.486Z,12.30
2017-09-15T19:49:12.785Z,12.40
2017-09-15T19:51:41.086Z,12.30
2017-09-15T19:54:09.486Z,12.40
2017-09-15T19:56:37.787Z,12.30
2017-09-15T19:59:06.193Z,12.20
2017-09-15T20:01:34.468Z,12.30
2017-09-15T20:04:02.776Z,12.30
2017-09-15T20:06:31.203Z,12.40
2017-09-15T20:08:59.519Z,12.40
2017-09-15T20:11:27.907Z,12.40
2017-09-15T20:13:56.218Z,12.40
2017-09-15T20:16:24.507Z,12.40
2017-09-15T20:18:52.839Z,12.30
2017-09-15T20:21:22.628Z,12.10
2017-09-15T20:23:50.908Z,12.20
2017-09-15T20:26:19.255Z,12.10
2017-09-15T20:28:47.574Z,12.10
2017-09-15T20:31:15.883Z,12.00
2017-09-15T20:33:44.199Z,12.10
2017-09-15T20:36:13.247Z,11.90
2017-09-15T20:38:41.590Z,11.90
2017-09-15T20:41:09.898Z,11.80
2017-09-15T20:43:38.183Z,11.70
2017-09-15T20:46:06.510Z,11.70
2017-09-15T20:48:34.790Z,11.60
2017-09-15T20:51:03.070Z,11.60
2017-09-15T20:53:31.385Z,11.40
2017-09-15T20:55:59.662Z,11.40
2017-09-15T20:58:27.974Z,11.30
2017-09-15T21:00:56.295Z,11.10
2017-09-15T21:03:24.576Z,11.00
2017-09-15T21:05:52.887Z,11.10
2017-09-15T21:08:21.174Z,11.00
2017-09-15T21:10:49.607Z,10.90
2017-09-15T21:13:17.923Z,10.90
2017-09-15T21:15:46.271Z,10.90
2017-09-15T21:18:14.594Z,10.90
2017-09-15T21:20:43.313Z,10.90
2017-09-15T21:23:11.606Z,10.90
2017-09-15T21:25:39.968Z,11.00
2017-09-15T21:28:09.014Z,11.00
2017-09-15T21:30:37.351Z,11.00
2017-09-15T21:33:05.647Z,11.00
2017-09-15T21:35:33.967Z,10.90
2017-09-15T21:38:02.257Z,10.90
2017-09-15T21:40:30.570Z,10.90
2017-09-15T21:42:58.890Z,10.80
2017-09-15T21:45:27.983Z,10.80
2017-09-15T21:47:56.949Z,10.70
2017-09-15T21:50:25.991Z,10.60
2017-09-15T21:52:54.328Z,10.60
2017-09-15T21:55:22.623Z,10.60
2017-09-15T21:57:51.133Z,10.50
2017-09-15T22:00:19.627Z,10.50
2017-09-15T22:02:47.907Z,10.50
2017-09-15T22:05:16.186Z,10.40
2017-09-15T22:07:44.521Z,10.30
2017-09-15T22:10:12.838Z,10.40
2017-09-15T22:12:41.136Z,10.40
2017-09-15T22:15:09.447Z,10.30
2017-09-15T22:17:37.819Z,10.30
2017-09-15T22:20:06.112Z,10.30
2017-09-15T22:22:34.435Z,10.20
2017-09-15T22:25:02.715Z,10.10
2017-09-15T22:27:31.006Z,10.10
2017-09-15T22:29:59.324Z,10.10
2017-09-15T22:32:27.654Z,10.20
2017-09-15T22:34:56.059Z,10.10
2017-09-15T22:37:24.358Z,10.10
2017-09-15T22:39:52.646Z,10.10
2017-09-15T22:42:21.886Z,10.00
2017-09-15T22:44:50.390Z,10.10
2017-09-15T22:47:18.674Z,10.00
2017-09-15T22:49:46.955Z,9.90
2017-09-15T22:52:15.287Z,9.90
2017-09-15T22:54:43.566Z,9.90
2017-09-15T22:57:11.871Z,9.80
2017-09-15T22:59:40.199Z,9.80
2017-09-15T23:02:08.518Z,9.80
2017-09-15T23:04:36.790Z,9.80
2017-09-15T23:07:05.066Z,9.70
2017-09-15T23:09:33.378Z,9.80
2017-09-15T23:12:01.664Z,9.70
2017-09-15T23:14:30.707Z,9.70
2017-09-15T23:17:01.225Z,9.70
2017-09-15T23:19:30.706Z,9.60
2017-09-15T23:21:58.978Z,9.60
2017-09-15T23:24:27.289Z,9.60
2017-09-15T23:26:55.674Z,9.60
2017-09-15T23:29:23.951Z,9.60
2017-09-15T23:31:52.277Z,9.50
2017-09-15T23:34:20.556Z,9.50
2017-09-15T23:36:50.332Z,9.30
2017-09-15T23:39:18.667Z,9.30
2017-09-15T23:41:47.546Z,9.40
2017-09-15T23:44:15.971Z,9.40
2017-09-15T23:46:44.250Z,9.40
2017-09-15T23:49:12.578Z,9.40
2017-09-15T23:51:40.987Z,9.30
2017-09-15T23:54:09.274Z,9.10
2017-09-15T23:56:37.580Z,9.20
2017-09-15T23:59:05.850Z,9.20
